Cosco Tengfei — HPMO — position and weather

sailwx.info

Track history (hours):
 
Tides and Currents Weather Stations Pressure Air Temp Water Temp Dewpoint Dewpoint Depression Visibility Wind Speed Wind Dir Waves Ship Positions

Cosco Tengfei

Last reported at 2016-Sep-01 12:16 UTC. Time now 2016-Sep-27 08:46 UTC.
Position N 31°28' W 124°27'.
Warning: this ship's position is 25 days out of date.

Length 183 m; draft 8.1 m.

Type: Cargo ship. MMSI: 355518000.

Date/timePositionNaut miles runAvg speedWind from/ knotsBaromVisibWave heightAir tempDewpointWater temp
2016-Sep-01 12:16N 31°28' W 124°27'2715.0
2016-Sep-01 10:27N 31°13' W 124°00'6115.0
2016-Sep-01 06:24N 30°40' W 123°01'2714.8
2016-Sep-01 04:33N 30°25' W 122°34'2114.8
2016-Sep-01 03:09N 30°14' W 122°14'1114.6
2016-Sep-01 02:24N 30°08' W 122°03'1414.5
2016-Sep-01 01:26N 30°00' W 121°50'1314.5
2016-Sep-01 00:33N 29°54' W 121°37'1414.1
2016-Aug-31 23:33N 29°46' W 121°24'1413.6
2016-Aug-31 22:32N 29°38' W 121°10'1313.3
2016-Aug-31 21:33N 29°31' W 120°58'1313.4
2016-Aug-31 20:33N 29°24' W 120°45'1313.4
2016-Aug-31 19:33N 29°17' W 120°32'1413.5
2016-Aug-31 18:33N 29°09' W 120°19'1613.5
2016-Aug-31 17:21N 29°00' W 120°03'10614.5
2016-Aug-31 10:04N 27°56' W 118°28'2314.3
2016-Aug-31 08:27N 27°42' W 118°07'  
Track history (hours):
 
Tides and Currents Weather Stations Pressure Air Temp Water Temp Dewpoint Dewpoint Depression Visibility Wind Speed Wind Dir Waves Ship Positions

Cosco Tengfei

Last reported at 2016-Sep-01 12:16 UTC. Time now 2016-Sep-27 08:46 UTC.
Position N 31°28' W 124°27'.
Warning: this ship's position is 25 days out of date.

Length 183 m; draft 8.1 m.

Type: Cargo ship. MMSI: 355518000.

Date/timePositionNaut miles runAvg speedWind from/ knotsBaromVisibWave heightAir tempDewpointWater temp
2016-Sep-01 12:16N 31°28' W 124°27'2715.0
2016-Sep-01 10:27N 31°13' W 124°00'6115.0
2016-Sep-01 06:24N 30°40' W 123°01'2714.8
2016-Sep-01 04:33N 30°25' W 122°34'2114.8
2016-Sep-01 03:09N 30°14' W 122°14'1114.6
2016-Sep-01 02:24N 30°08' W 122°03'1414.5
2016-Sep-01 01:26N 30°00' W 121°50'1314.5
2016-Sep-01 00:33N 29°54' W 121°37'1414.1
2016-Aug-31 23:33N 29°46' W 121°24'1413.6
2016-Aug-31 22:32N 29°38' W 121°10'1313.3
2016-Aug-31 21:33N 29°31' W 120°58'1313.4
2016-Aug-31 20:33N 29°24' W 120°45'1313.4
2016-Aug-31 19:33N 29°17' W 120°32'1413.5
2016-Aug-31 18:33N 29°09' W 120°19'1613.5
2016-Aug-31 17:21N 29°00' W 120°03'10614.5
2016-Aug-31 10:04N 27°56' W 118°28'2314.3
2016-Aug-31 08:27N 27°42' W 118°07'  

Dump ship's entire track history